AirNav   Phillips 66 Aviation Fuel
 
 425 users online  

TE85 Marmack Airport
Montgomery, Texas, USA

GOING TO MONTGOMERY?


FAA INFORMATION EFFECTIVE 13 SEPTEMBER 2018

Location

FAA Identifier: TE85
Lat/Long: 30-20-31.9600N / 095-39-40.7700W
30-20.532667N / 095-39.679500W
30.3422111 / -95.6613250
(estimated)
Elevation: 295 ft. / 90 m (estimated)
Variation: 05E (1995)
From city: 5 miles NW of MONTGOMERY, TX
Time zone: UTC -5 (UTC -6 during Standard Time)
Zip code: 77316

Airport Operations

Airport use: Private use. Permission required prior to landing
Activation date: 08/2000
Control tower: no
ARTCC: HOUSTON CENTER
FSS: MONTGOMERY COUNTY FLIGHT SERVICE STATION
Attendance: CONTINUOUS
Wind indicator: lighted
Segmented circle: no
Lights: ACTVT LIRL RY 12/30 - 122.6.

Airport Communications

WX ASOS at CXO (13 nm E): 118.325 (936-760-4237)
WX ASOS at DWH (18 nm S): PHONE 281-251-7853

Nearby radio navigation aids

VOR radial/distance  VOR name  Freq  Var
TNVr073/20.8NAVASOTA VOR/DME115.9008E
IAHr320/28.3HUMBLE VORTAC116.6005E

 
NDB name  Hdg/Dist  Freq  Var  ID
ALIBI236/11.028105ECX -.-. -..-
HUNTSVILLE183/24.230806EUTS ..- - ...
NIXIN307/31.232605EBVP -... ...- .--.

Airport Services

Runway Information

Runway 12/30

Dimensions: 2100 x 16 ft. / 640 x 5 m
Surface: asphalt
Runway edge lights: low intensity
Runway edge markings: RY 12/30 THLDS & CNTRLN MARKINGS.
Operational restrictions: RY 30 SLOPES UPHILL APROXLY 45 FT IN ELEVATION WITHIN THE RY DSTC OF 2100 FT.
RUNWAY 12  RUNWAY 30
Traffic pattern: leftleft
Obstructions: none100 ft. trees, 200 ft. from runway

Airport Ownership and Management from official FAA records

Ownership: Privately-owned
Owner: JAM HOLDINGS, LTD
PO BOX 1290
MONTGOMERY, TX 77356
Phone 713-822-4476
Manager: JEFF MARMACK
PO BOX 1290
MONTGOMERY, TX 77069
Phone 713-822-4476

Airport Operational Statistics

Aircraft based on the field: 1
Single engine airplanes: 1
    

Additional Remarks

CATTLE AND DEER ON & INVOF ARPT.

Instrument Procedures

There are no published instrument procedures at TE85.

Some nearby airports with instrument procedures:

KCXO - Conroe-North Houston Regional Airport (13 nm E)
KDWH - David Wayne Hooks Memorial Airport (18 nm S)
60R - Navasota Municipal Airport (23 nm W)
KUTS - Huntsville Municipal Airport (25 nm N)
KIAH - George Bush Intercontinental/Houston Airport (27 nm SE)
 
Loc | Ops | Rwys | IFR | FBO | Links
Com | Nav | Svcs | Stats | Notes


 
Area around TE85 (Marmack Airport)
 
Road maps at: MapQuest Bing Google
 
Aerial photo
No photo
 
Sectional chart

 
Airport distance calculator
Flying to Marmack Airport? Find the distance to fly.

From to TE85

Sunrise and sunset
Times for 24-Sep-2018
 Local
(UTC-5)
 Zulu
(UTC)
Morning civil twilight06:4911:49
Sunrise07:1312:13
Sunset19:1600:16
Evening civil twilight19:4000:40

Current date and time
Zulu (UTC)  24-Sep-2018 10:39:54
Local (UTC-5)  24-Sep-2018 05:39:54
 
METAR
KCXO 
13nm E 
240953Z AUTO 00000KT 10SM OVC042 22/22 A2990 RMK AO2 SLP122 T02170217
KDWH 
18nm S 
240953Z AUTO 00000KT 10SM OVC045 23/22 A2989 RMK AO2 SLP119 T02330222
KUTS 
25nm N 
240953Z AUTO 22003KT 10SM OVC040 23/21 A2989 RMK AO2 SLP118 T02280206
TAF
KCXO 
13nm E 
240903Z 2409/2506 00000KT 6SM BR OVC040 TEMPO 2412/2414 5SM BR BKN025 FM241900 22006KT P6SM SCT025 BKN040 FM250000 VRB03KT P6SM SCT250
NOTAMs
Click for the latest NOTAMs
NOTAMs are issued by the DoD/FAA and will open in a separate window not controlled by AirNav.

 

 
 

Would you like to see your business listed on this page?

 If your business provides an interesting product or service to pilots, flight crews, aircraft, or users of the Marmack Airport, you should consider listing it here.  To start the listing process, click on the button below
 
Add a business
 

Other Pages about Marmack Airport

Update a link
 
Copyright © AirNav, LLC. All rights reserved. Privacy Policy  Contact